createdAt,value
2018-01-15T00:00:59.227Z,71.10
2018-01-15T00:03:28.117Z,71.10
2018-01-15T00:05:58.123Z,69.50
2018-01-15T00:08:27.835Z,69.60
2018-01-15T00:10:57.610Z,69.20
2018-01-15T00:13:26.560Z,68.80
2018-01-15T00:15:55.344Z,68.70
2018-01-15T00:18:26.836Z,68.50
2018-01-15T00:20:55.650Z,68.40
2018-01-15T00:23:24.592Z,68.40
2018-01-15T00:25:53.275Z,68.80
2018-01-15T00:28:21.947Z,68.30
2018-01-15T00:30:50.638Z,68.20
2018-01-15T00:33:19.386Z,68.20
2018-01-15T00:35:48.332Z,68.30
2018-01-15T00:38:17.114Z,69.00
2018-01-15T00:40:45.904Z,68.20
2018-01-15T00:43:15.710Z,68.20
2018-01-15T00:45:44.456Z,68.20
2018-01-15T00:48:13.525Z,68.20
2018-01-15T00:50:42.227Z,68.20
2018-01-15T00:53:11.628Z,68.50
2018-01-15T00:55:40.411Z,68.40
2018-01-15T00:58:09.933Z,68.40
2018-01-15T01:00:38.841Z,68.40
2018-01-15T01:03:07.806Z,68.50
2018-01-15T01:05:37.527Z,68.60
2018-01-15T01:08:07.320Z,68.70
2018-01-15T01:10:36.150Z,68.70
2018-01-15T01:13:04.948Z,68.70
2018-01-15T01:15:33.642Z,68.60
2018-01-15T01:18:02.372Z,68.70
2018-01-15T01:20:31.192Z,69.00
2018-01-15T01:23:00.055Z,69.00
2018-01-15T01:25:29.893Z,69.30
2018-01-15T01:28:00.197Z,69.20
2018-01-15T01:30:30.394Z,69.10
2018-01-15T01:32:59.350Z,69.10
2018-01-15T01:35:28.434Z,69.10
2018-01-15T01:38:41.304Z,69.20
2018-01-15T01:41:10.158Z,69.30
2018-01-15T01:43:38.554Z,69.40
2018-01-15T01:46:53.295Z,69.20
2018-01-15T01:49:23.937Z,69.20
2018-01-15T01:51:54.370Z,69.10
2018-01-15T01:54:22.805Z,69.20
2018-01-15T01:56:51.406Z,69.20
2018-01-15T01:59:19.947Z,69.30
2018-01-15T02:01:48.548Z,69.30
2018-01-15T02:04:17.264Z,69.30
2018-01-15T02:06:45.861Z,69.30
2018-01-15T02:09:14.961Z,69.40
2018-01-15T02:11:43.266Z,69.40
2018-01-15T02:14:12.666Z,69.50
2018-01-15T02:16:40.936Z,69.60
2018-01-15T02:19:09.261Z,69.80
2018-01-15T02:21:37.730Z,69.90
2018-01-15T02:24:06.269Z,69.80
2018-01-15T02:26:35.426Z,69.80
2018-01-15T02:29:03.889Z,69.80
2018-01-15T02:31:32.323Z,69.80
2018-01-15T02:34:01.507Z,69.70
2018-01-15T02:36:30.788Z,69.80
2018-01-15T02:38:59.092Z,69.80
2018-01-15T02:41:29.194Z,70.10
2018-01-15T02:43:57.493Z,70.10
2018-01-15T02:46:26.578Z,70.40
2018-01-15T02:48:55.160Z,70.40
2018-01-15T02:51:23.734Z,70.70
2018-01-15T02:53:52.005Z,70.70
2018-01-15T02:56:20.254Z,70.70
2018-01-15T02:58:49.229Z,70.60
2018-01-15T03:01:20.067Z,70.50
2018-01-15T03:03:48.484Z,70.50
2018-01-15T03:06:17.047Z,70.60
2018-01-15T03:08:45.521Z,70.70
2018-01-15T03:11:13.887Z,70.70
2018-01-15T03:13:42.177Z,70.90
2018-01-15T03:16:10.584Z,70.80
2018-01-15T03:18:38.931Z,70.70
2018-01-15T03:21:07.277Z,70.90
2018-01-15T03:23:35.774Z,71.40
2018-01-15T03:26:04.239Z,71.30
2018-01-15T03:28:32.690Z,71.00
2018-01-15T03:31:01.243Z,70.90
2018-01-15T03:33:29.605Z,70.90
2018-01-15T03:35:57.945Z,71.00
2018-01-15T03:38:27.105Z,71.10
2018-01-15T03:40:55.504Z,71.20
2018-01-15T03:43:23.848Z,71.30
2018-01-15T03:45:52.373Z,71.30
2018-01-15T03:48:21.437Z,71.20
2018-01-15T03:50:49.758Z,71.10
2018-01-15T03:53:18.189Z,71.10
2018-01-15T03:55:46.549Z,71.00
2018-01-15T03:58:15.685Z,70.90
2018-01-15T04:00:43.715Z,70.90
2018-01-15T04:03:11.874Z,70.90
2018-01-15T04:05:40.698Z,70.80
2018-01-15T04:08:08.873Z,70.90
2018-01-15T04:10:36.994Z,70.80
2018-01-15T04:13:05.010Z,70.60
2018-01-15T04:15:32.976Z,70.80
2018-01-15T04:18:00.945Z,70.90
2018-01-15T04:20:30.346Z,70.90
2018-01-15T04:22:58.304Z,70.90
2018-01-15T04:25:26.457Z,70.90
2018-01-15T04:27:54.522Z,70.50
2018-01-15T04:30:22.528Z,70.50
2018-01-15T04:32:50.766Z,70.50
2018-01-15T04:35:18.666Z,70.50
2018-01-15T04:37:48.406Z,70.80
2018-01-15T04:40:17.039Z,70.80
2018-01-15T04:42:45.364Z,70.70
2018-01-15T04:45:14.492Z,70.80
2018-01-15T04:47:42.699Z,70.70
2018-01-15T04:50:10.693Z,70.90
2018-01-15T04:52:40.716Z,71.00
2018-01-15T04:55:08.693Z,71.10
2018-01-15T04:57:36.869Z,71.30
2018-01-15T05:00:04.989Z,71.30
2018-01-15T05:02:33.319Z,71.20
2018-01-15T05:05:02.523Z,71.20
2018-01-15T05:07:31.365Z,71.20
2018-01-15T05:09:59.797Z,71.10
2018-01-15T05:12:28.995Z,71.00
2018-01-15T05:15:01.494Z,71.00
2018-01-15T05:17:31.153Z,71.00
2018-01-15T05:20:00.078Z,71.00
2018-01-15T05:22:28.114Z,71.00
2018-01-15T05:24:56.641Z,71.00
2018-01-15T05:27:25.477Z,71.10
2018-01-15T05:29:54.160Z,70.90
2018-01-15T05:32:22.007Z,70.90
2018-01-15T05:34:50.251Z,71.00
2018-01-15T05:37:19.042Z,71.20
2018-01-15T05:39:47.400Z,71.20
2018-01-15T05:42:16.396Z,71.20
2018-01-15T05:44:44.885Z,71.10
2018-01-15T05:47:12.965Z,71.10
2018-01-15T05:49:41.879Z,71.30
2018-01-15T05:52:10.057Z,71.30
2018-01-15T05:54:38.393Z,71.20
2018-01-15T05:57:08.058Z,71.20
2018-01-15T05:59:36.382Z,71.20
2018-01-15T06:02:05.934Z,70.90
2018-01-15T06:04:33.876Z,70.90
2018-01-15T06:07:02.977Z,70.90
2018-01-15T06:09:31.789Z,70.60
2018-01-15T06:11:59.935Z,70.60
2018-01-15T06:14:28.042Z,70.90
2018-01-15T06:16:56.803Z,70.80
2018-01-15T06:19:24.842Z,70.80
2018-01-15T06:22:03.423Z,70.80
2018-01-15T06:24:34.225Z,70.60
2018-01-15T06:27:13.994Z,70.50
2018-01-15T06:29:43.343Z,70.70
2018-01-15T06:32:12.706Z,70.50
2018-01-15T06:34:41.159Z,70.50
2018-01-15T06:37:26.639Z,70.00
2018-01-15T06:40:16.416Z,70.00
2018-01-15T06:42:47.044Z,70.20
2018-01-15T06:45:16.209Z,70.00
2018-01-15T06:47:45.405Z,70.00
2018-01-15T06:50:14.063Z,70.00
2018-01-15T06:52:49.997Z,69.90
2018-01-15T06:55:19.966Z,70.50
2018-01-15T06:57:49.234Z,69.80
2018-01-15T07:00:18.124Z,69.80
2018-01-15T07:02:46.993Z,69.90
2018-01-15T07:05:15.074Z,69.90
2018-01-15T07:07:43.516Z,69.90
2018-01-15T07:10:11.895Z,69.90
2018-01-15T07:12:43.050Z,69.70
2018-01-15T07:15:28.553Z,69.80
2018-01-15T07:18:19.470Z,70.40
2018-01-15T07:20:48.261Z,69.90
2018-01-15T07:23:17.124Z,69.70
2018-01-15T07:25:45.591Z,69.70
2018-01-15T07:28:13.901Z,69.70
2018-01-15T07:30:43.001Z,70.10
2018-01-15T07:33:11.344Z,69.90
2018-01-15T07:35:39.894Z,70.00
2018-01-15T07:38:09.473Z,70.00
2018-01-15T07:40:41.015Z,70.00
2018-01-15T07:43:11.723Z,69.70
2018-01-15T07:45:40.049Z,69.70
2018-01-15T07:48:11.019Z,69.80
2018-01-15T07:50:39.248Z,70.10
2018-01-15T07:53:08.673Z,69.80
2018-01-15T07:55:46.129Z,69.70
2018-01-15T07:58:14.276Z,69.70
2018-01-15T08:00:42.383Z,70.10
2018-01-15T08:03:12.463Z,70.50
2018-01-15T08:05:42.390Z,70.20
2018-01-15T08:08:10.566Z,70.30
2018-01-15T08:10:40.565Z,70.30
2018-01-15T08:13:09.064Z,70.40
2018-01-15T08:15:37.434Z,70.20
2018-01-15T08:18:05.695Z,69.90
2018-01-15T08:20:35.038Z,69.30
2018-01-15T08:23:06.322Z,69.80
2018-01-15T08:25:42.505Z,69.50
2018-01-15T08:28:13.145Z,69.60
2018-01-15T08:30:42.238Z,70.00
2018-01-15T08:33:11.304Z,70.20
2018-01-15T08:35:49.173Z,70.30
2018-01-15T08:38:34.140Z,70.20
2018-01-15T08:41:18.573Z,70.10
2018-01-15T08:43:56.088Z,69.70
2018-01-15T08:46:25.586Z,69.20
2018-01-15T08:49:01.585Z,69.10
2018-01-15T08:51:38.835Z,69.60
2018-01-15T08:54:07.438Z,69.90
2018-01-15T08:56:37.876Z,69.50
2018-01-15T08:59:09.443Z,69.40
2018-01-15T09:01:39.314Z,69.70
2018-01-15T09:04:08.084Z,69.70
2018-01-15T09:06:37.723Z,69.30
2018-01-15T09:09:05.977Z,69.30
2018-01-15T09:11:34.070Z,69.40
2018-01-15T09:14:02.348Z,69.30
2018-01-15T09:16:30.416Z,69.40
2018-01-15T09:19:11.588Z,69.50
2018-01-15T09:21:39.614Z,69.10
2018-01-15T09:24:13.229Z,68.70
2018-01-15T09:26:43.203Z,68.70
2018-01-15T09:29:11.271Z,68.60
2018-01-15T09:31:39.486Z,68.70
2018-01-15T09:34:08.220Z,69.10
2018-01-15T09:36:37.411Z,69.10
2018-01-15T09:39:05.408Z,69.10
2018-01-15T09:41:35.165Z,69.40
2018-01-15T09:44:05.937Z,69.10
2018-01-15T09:46:34.090Z,69.10
2018-01-15T09:49:03.401Z,69.50
2018-01-15T09:51:31.912Z,69.60
2018-01-15T09:54:00.179Z,69.10
2018-01-15T09:56:28.469Z,69.60
2018-01-15T09:58:56.745Z,70.50
2018-01-15T10:01:25.233Z,71.00
2018-01-15T10:03:55.101Z,72.10
2018-01-15T10:06:23.596Z,72.60
2018-01-15T10:08:52.255Z,73.10
2018-01-15T10:11:26.000Z,73.20
2018-01-15T10:13:54.682Z,73.20
2018-01-15T10:16:25.307Z,72.10
2018-01-15T10:18:59.224Z,72.80
2018-01-15T10:21:32.938Z,72.80
2018-01-15T10:24:05.178Z,73.20
2018-01-15T10:26:35.125Z,72.50
2018-01-15T10:29:04.289Z,71.80
2018-01-15T10:31:38.920Z,71.60
2018-01-15T10:34:14.254Z,72.00
2018-01-15T10:36:43.492Z,71.80
2018-01-15T10:39:11.837Z,71.80
2018-01-15T10:41:43.658Z,71.30
2018-01-15T10:44:12.491Z,70.90
2018-01-15T10:47:03.674Z,70.90
2018-01-15T10:56:22.732Z,71.40
2018-01-15T10:58:55.039Z,71.00
2018-01-15T11:01:26.792Z,70.90
2018-01-15T11:03:55.123Z,70.90
2018-01-15T11:13:18.472Z,71.00
2018-01-15T11:15:48.358Z,70.90
2018-01-15T11:18:19.461Z,71.00
2018-01-15T11:20:50.736Z,70.60
2018-01-15T11:23:22.339Z,70.70
2018-01-15T11:26:00.893Z,70.00
2018-01-15T11:28:29.246Z,69.60
2018-01-15T11:31:01.637Z,69.50
2018-01-15T11:33:33.162Z,69.50
2018-01-15T11:36:02.217Z,69.60
2018-01-15T11:39:16.349Z,69.40
2018-01-15T11:41:45.575Z,69.40
2018-01-15T11:44:16.937Z,69.00
2018-01-15T11:46:45.400Z,68.90
2018-01-15T11:49:13.804Z,69.00
2018-01-15T11:51:49.510Z,68.70
2018-01-15T11:54:17.886Z,68.70
2018-01-15T11:56:46.633Z,68.70
2018-01-15T11:59:25.842Z,68.80
2018-01-15T12:01:53.906Z,68.50
2018-01-15T12:04:23.908Z,68.50
2018-01-15T12:06:52.077Z,68.50
2018-01-15T12:09:20.152Z,69.50
2018-01-15T12:11:53.633Z,69.90
2018-01-15T12:14:21.971Z,70.90
2018-01-15T12:16:50.348Z,71.30
2018-01-15T12:19:19.289Z,71.50
2018-01-15T12:21:52.874Z,71.90
2018-01-15T12:24:21.649Z,72.40
2018-01-15T12:26:50.678Z,73.00
2018-01-15T12:29:19.949Z,72.90
2018-01-15T12:31:50.849Z,72.90
2018-01-15T12:34:19.027Z,71.80
2018-01-15T12:36:52.064Z,71.60
2018-01-15T12:39:26.364Z,71.10
2018-01-15T12:41:54.469Z,71.10
2018-01-15T12:44:23.010Z,71.60
2018-01-15T12:46:52.685Z,71.40
2018-01-15T12:49:23.502Z,71.50
2018-01-15T12:51:52.800Z,71.40
2018-01-15T12:54:25.897Z,71.10
2018-01-15T12:56:54.246Z,71.30
2018-01-15T12:59:22.237Z,71.40
2018-01-15T13:01:51.702Z,71.60
2018-01-15T13:04:20.777Z,72.50
2018-01-15T13:06:56.164Z,73.20
2018-01-15T13:09:28.837Z,73.20
2018-01-15T13:11:59.038Z,72.90
2018-01-15T13:17:26.719Z,72.60
2018-01-15T13:19:54.725Z,73.00
2018-01-15T13:22:24.217Z,73.20
2018-01-15T13:24:53.074Z,73.40
2018-01-15T13:27:23.866Z,72.90
2018-01-15T13:30:09.311Z,72.60
2018-01-15T13:32:51.755Z,72.50
2018-01-15T13:36:03.682Z,72.60
2018-01-15T13:38:37.179Z,72.30
2018-01-15T13:41:31.348Z,72.00
2018-01-15T13:44:00.256Z,72.10
2018-01-15T13:46:28.446Z,72.50
2018-01-15T13:49:01.201Z,72.50
2018-01-15T13:52:07.667Z,72.50
2018-01-15T13:54:37.717Z,73.20
2018-01-15T13:57:14.538Z,73.00
2018-01-15T13:59:59.651Z,72.90
2018-01-15T14:02:59.167Z,73.60
2018-01-15T14:05:27.862Z,72.60
2018-01-15T14:07:59.792Z,72.80
2018-01-15T14:10:28.158Z,73.40
2018-01-15T14:12:56.715Z,73.00
2018-01-15T14:15:38.761Z,72.90
2018-01-15T14:18:08.613Z,73.20
2018-01-15T14:21:19.379Z,72.70
2018-01-15T14:23:47.538Z,72.70
2018-01-15T14:26:43.504Z,72.60
2018-01-15T14:29:16.109Z,72.50
2018-01-15T14:31:51.668Z,72.80
2018-01-15T14:34:20.738Z,72.60
2018-01-15T14:37:04.393Z,72.40
2018-01-15T14:39:33.835Z,72.40
2018-01-15T14:42:02.453Z,72.40
2018-01-15T14:44:53.748Z,72.10
2018-01-15T14:47:32.791Z,72.50
2018-01-15T14:50:03.803Z,72.10
2018-01-15T14:52:43.141Z,72.20
2018-01-15T14:55:28.534Z,72.00
2018-01-15T14:57:56.886Z,72.30
2018-01-15T15:00:29.072Z,72.80
2018-01-15T15:02:58.965Z,72.20
2018-01-15T15:05:33.527Z,72.20
2018-01-15T15:08:03.015Z,72.10
2018-01-15T15:10:34.013Z,71.90
2018-01-15T15:13:33.942Z,72.10
2018-01-15T15:16:03.178Z,72.10
2018-01-15T15:21:52.596Z,72.10
2018-01-15T15:24:21.631Z,71.50
2018-01-15T15:26:53.416Z,71.50
2018-01-15T15:29:32.506Z,71.10
2018-01-15T15:32:00.761Z,71.10
2018-01-15T15:34:29.898Z,71.20
2018-01-15T15:37:01.498Z,71.10
2018-01-15T15:40:05.828Z,71.40
2018-01-15T15:42:35.306Z,71.60
2018-01-15T15:45:05.173Z,71.40
2018-01-15T15:47:34.667Z,71.40
2018-01-15T15:50:04.580Z,71.40
2018-01-15T15:52:39.607Z,71.70
2018-01-15T15:55:26.563Z,71.70
2018-01-15T15:57:54.608Z,71.50
2018-01-15T16:00:23.894Z,71.40
2018-01-15T16:02:53.077Z,71.70
2018-01-15T16:06:10.539Z,71.80
2018-01-15T16:08:42.431Z,72.30
2018-01-15T16:11:11.108Z,71.90
2018-01-15T16:13:42.859Z,72.80
2018-01-15T16:16:16.015Z,72.50
2018-01-15T16:18:44.714Z,73.80
2018-01-15T16:21:20.796Z,74.80
2018-01-15T16:23:50.087Z,75.10
2018-01-15T16:26:21.208Z,76.20
2018-01-15T16:28:50.338Z,75.70
2018-01-15T16:34:06.900Z,76.50
2018-01-15T16:36:36.392Z,77.60
2018-01-15T16:39:11.318Z,77.70
2018-01-15T16:41:40.047Z,77.60
2018-01-15T16:44:08.380Z,77.70
2018-01-15T16:46:36.348Z,77.90
2018-01-15T16:49:05.081Z,78.30
2018-01-15T16:51:35.702Z,79.00
2018-01-15T16:54:04.081Z,78.40
2018-01-15T16:56:33.942Z,78.80
2018-01-15T16:59:06.677Z,79.40
2018-01-15T17:01:35.596Z,80.00
2018-01-15T17:04:04.848Z,79.30
2018-01-15T17:06:32.934Z,79.70
2018-01-15T17:09:01.515Z,79.70
2018-01-15T17:11:29.537Z,79.30
2018-01-15T17:13:57.571Z,79.80
2018-01-15T17:16:25.816Z,78.90
2018-01-15T17:18:59.327Z,79.00
2018-01-15T17:21:29.794Z,79.20
2018-01-15T17:23:59.067Z,79.10
2018-01-15T17:26:28.522Z,78.30
2018-01-15T17:28:56.715Z,78.00
2018-01-15T17:31:25.795Z,77.50
2018-01-15T17:33:55.891Z,77.40
2018-01-15T17:36:51.596Z,77.10
2018-01-15T17:39:20.623Z,76.90
2018-01-15T17:41:56.779Z,77.30
2018-01-15T17:44:25.596Z,77.40
2018-01-15T17:46:56.001Z,76.90
2018-01-15T17:49:24.095Z,77.30
2018-01-15T17:51:52.759Z,77.40
2018-01-15T17:54:21.621Z,77.40
2018-01-15T17:56:50.023Z,77.20
2018-01-15T17:59:21.274Z,77.60
2018-01-15T18:01:49.656Z,77.50
2018-01-15T18:04:18.534Z,77.30
2018-01-15T18:06:47.255Z,77.60
2018-01-15T18:09:17.668Z,78.60
2018-01-15T18:11:47.038Z,78.60
2018-01-15T18:14:16.693Z,78.70
2018-01-15T18:16:45.784Z,78.80
2018-01-15T18:19:21.092Z,78.90
2018-01-15T18:21:50.554Z,79.40
2018-01-15T18:24:20.279Z,79.50
2018-01-15T18:26:53.296Z,79.40
2018-01-15T18:29:30.257Z,79.40
2018-01-15T18:32:11.509Z,80.20
2018-01-15T18:34:39.748Z,79.50
2018-01-15T18:37:10.448Z,80.00
2018-01-15T18:39:38.438Z,81.00
2018-01-15T18:42:07.148Z,81.50
2018-01-15T18:44:35.451Z,81.00
2018-01-15T18:47:05.445Z,81.90
2018-01-15T18:49:35.040Z,81.90
2018-01-15T18:52:06.678Z,82.50
2018-01-15T18:54:34.647Z,82.50
2018-01-15T18:57:04.156Z,82.80
2018-01-15T18:59:36.722Z,82.70
2018-01-15T19:02:10.532Z,82.10
2018-01-15T19:04:42.188Z,83.10
2018-01-15T19:07:10.757Z,83.00
2018-01-15T19:09:41.584Z,83.50
2018-01-15T19:12:13.963Z,83.50
2018-01-15T19:14:46.737Z,83.40
2018-01-15T19:17:15.893Z,83.40
2018-01-15T19:19:46.018Z,83.60
2018-01-15T19:22:18.221Z,83.70
2018-01-15T19:24:47.718Z,84.30
2018-01-15T19:27:16.310Z,84.50
2018-01-15T19:29:45.743Z,84.70
2018-01-15T19:32:15.732Z,84.60
2018-01-15T19:34:44.726Z,84.70
2018-01-15T19:37:13.847Z,84.40
2018-01-15T19:39:45.003Z,84.30
2018-01-15T19:42:13.861Z,84.40
2018-01-15T19:44:47.405Z,84.70
2018-01-15T19:49:23.571Z,84.10
2018-01-15T19:53:32.464Z,85.00
2018-01-15T19:58:19.068Z,85.10
2018-01-15T20:02:58.718Z,85.40
2018-01-15T20:07:40.886Z,85.40
2018-01-15T20:11:14.288Z,85.60
2018-01-15T20:13:43.999Z,86.10
2018-01-15T20:16:19.032Z,86.10
2018-01-15T20:18:52.141Z,86.10
2018-01-15T20:21:25.452Z,86.10
2018-01-15T20:24:07.656Z,86.10
2018-01-15T20:26:38.736Z,85.70
2018-01-15T20:29:06.784Z,86.10
2018-01-15T20:31:36.989Z,86.10
2018-01-15T20:34:09.117Z,85.70
2018-01-15T20:36:39.284Z,85.70
2018-01-15T20:39:10.986Z,85.70
2018-01-15T20:41:45.048Z,85.50
2018-01-15T20:44:40.446Z,85.50
2018-01-15T20:50:25.084Z,85.80
2018-01-15T20:52:53.069Z,85.90
2018-01-15T20:55:21.484Z,86.20
2018-01-15T20:57:49.660Z,86.20
2018-01-15T21:00:19.402Z,85.30
2018-01-15T21:02:47.918Z,85.30
2018-01-15T21:05:15.963Z,85.90
2018-01-15T21:07:45.555Z,86.20
2018-01-15T21:10:20.414Z,86.30
2018-01-15T21:13:02.284Z,86.40
2018-01-15T21:15:31.394Z,86.30
2018-01-15T21:17:59.682Z,86.20
2018-01-15T21:20:38.363Z,86.20
2018-01-15T21:23:11.914Z,86.60
2018-01-15T21:25:40.567Z,85.70
2018-01-15T21:28:09.499Z,86.10
2018-01-15T21:30:37.597Z,85.80
2018-01-15T21:33:06.731Z,86.00
2018-01-15T21:36:26.738Z,85.90
2018-01-15T21:38:54.690Z,85.90
2018-01-15T21:41:26.886Z,87.00
2018-01-15T21:43:55.975Z,86.50
2018-01-15T21:46:24.307Z,86.50
2018-01-15T21:48:53.499Z,86.30
2018-01-15T21:51:22.371Z,86.40
2018-01-15T21:53:53.137Z,86.40
2018-01-15T21:56:22.335Z,86.50
2018-01-15T21:58:50.974Z,86.40
2018-01-15T22:01:18.954Z,86.30
2018-01-15T22:03:51.147Z,86.30
2018-01-15T22:06:20.297Z,86.30
2018-01-15T22:08:48.524Z,86.40
2018-01-15T22:11:17.668Z,86.70
2018-01-15T22:13:45.700Z,86.70
2018-01-15T22:16:13.811Z,86.60
2018-01-15T22:18:42.736Z,87.00
2018-01-15T22:21:22.028Z,87.10
2018-01-15T22:23:51.119Z,87.30
2018-01-15T22:26:19.332Z,87.30
2018-01-15T22:28:47.297Z,87.80
2018-01-15T22:31:16.306Z,87.60
2018-01-15T22:33:44.224Z,87.60
2018-01-15T22:36:12.199Z,87.70
2018-01-15T22:38:41.246Z,87.60
2018-01-15T22:41:09.191Z,87.80
2018-01-15T22:43:37.119Z,87.60
2018-01-15T22:46:05.906Z,87.50
2018-01-15T22:48:35.148Z,87.50
2018-01-15T22:51:07.858Z,87.80
2018-01-15T22:53:35.931Z,87.90
2018-01-15T22:56:08.642Z,87.80
2018-01-15T22:58:40.356Z,87.90
2018-01-15T23:01:10.736Z,88.20
2018-01-15T23:03:40.038Z,88.10
2018-01-15T23:06:07.927Z,88.20
2018-01-15T23:08:36.105Z,88.50
2018-01-15T23:11:08.316Z,88.40
2018-01-15T23:13:36.350Z,88.50
2018-01-15T23:16:04.205Z,88.70
2018-01-15T23:18:32.086Z,88.70
2018-01-15T23:20:59.932Z,88.50
2018-01-15T23:23:28.677Z,88.60
2018-01-15T23:25:56.548Z,88.50
2018-01-15T23:28:24.658Z,88.80
2018-01-15T23:30:53.168Z,88.70
2018-01-15T23:33:21.953Z,88.60
2018-01-15T23:35:49.764Z,88.60
2018-01-15T23:38:17.612Z,88.60
2018-01-15T23:40:45.594Z,88.80
2018-01-15T23:43:14.628Z,88.60
2018-01-15T23:45:43.257Z,88.50
2018-01-15T23:48:11.214Z,88.40
2018-01-15T23:50:39.651Z,88.30
2018-01-15T23:53:08.481Z,87.90
2018-01-15T23:55:36.555Z,87.90
2018-01-15T23:58:04.534Z,87.40
